createdAt,value
2019-03-08T00:00:22.855Z,37.60
2019-03-08T00:02:51.300Z,34.70
2019-03-08T00:05:20.056Z,32.95
2019-03-08T00:07:48.418Z,35.00
2019-03-08T00:10:16.901Z,37.75
2019-03-08T00:12:45.188Z,33.20
2019-03-08T00:15:15.183Z,30.68
2019-03-08T00:17:43.578Z,34.18
2019-03-08T00:20:12.136Z,34.40
2019-03-08T00:22:40.486Z,33.45
2019-03-08T00:25:13.360Z,31.27
2019-03-08T00:27:41.724Z,31.35
2019-03-08T00:30:15.733Z,32.53
2019-03-08T00:32:44.646Z,31.23
2019-03-08T00:35:13.011Z,36.55
2019-03-08T00:37:41.391Z,30.52
2019-03-08T00:40:12.262Z,35.48
2019-03-08T00:42:40.661Z,30.90
2019-03-08T00:45:16.955Z,34.67
2019-03-08T00:47:45.309Z,31.50
2019-03-08T00:50:13.738Z,32.58
2019-03-08T00:52:42.133Z,38.65
2019-03-08T00:55:14.348Z,32.05
2019-03-08T00:57:42.710Z,37.35
2019-03-08T01:00:17.385Z,33.83
2019-03-08T01:02:45.737Z,27.00
2019-03-08T01:05:14.104Z,34.13
2019-03-08T01:07:42.604Z,31.77
2019-03-08T01:10:22.152Z,42.43
2019-03-08T01:12:50.543Z,36.13
2019-03-08T01:15:19.051Z,32.40
2019-03-08T01:17:47.434Z,36.45
2019-03-08T01:20:18.224Z,39.88
2019-03-08T01:22:46.579Z,37.38
2019-03-08T01:25:15.806Z,37.33
2019-03-08T01:27:58.939Z,37.30
2019-03-08T01:30:27.564Z,38.63
2019-03-08T01:32:55.919Z,42.15
2019-03-08T01:35:24.633Z,36.75
2019-03-08T01:37:53.370Z,39.42
2019-03-08T01:40:21.722Z,41.42
2019-03-08T01:42:50.641Z,38.00
2019-03-08T01:45:19.002Z,36.68
2019-03-08T01:47:47.354Z,39.03
2019-03-08T01:50:15.778Z,41.68
2019-03-08T01:52:44.430Z,41.58
2019-03-08T01:55:12.799Z,36.95
2019-03-08T01:57:41.226Z,40.35
2019-03-08T02:00:15.226Z,38.13
2019-03-08T02:02:43.599Z,36.85
2019-03-08T02:05:12.002Z,37.67
2019-03-08T02:07:40.358Z,38.25
2019-03-08T02:10:14.723Z,37.17
2019-03-08T02:12:43.044Z,35.70
2019-03-08T02:15:16.268Z,39.53
2019-03-08T02:17:44.656Z,37.95
2019-03-08T02:20:15.163Z,34.83
2019-03-08T02:22:43.519Z,35.55
2019-03-08T02:25:11.916Z,34.35
2019-03-08T02:27:40.281Z,31.85
2019-03-08T02:30:14.176Z,30.17
2019-03-08T02:32:43.224Z,34.70
2019-03-08T02:35:11.660Z,34.88
2019-03-08T02:37:40.048Z,32.53
2019-03-08T02:40:26.546Z,29.52
2019-03-08T02:42:54.919Z,37.65
2019-03-08T02:45:23.429Z,30.10
2019-03-08T02:47:51.826Z,29.35
2019-03-08T02:50:20.183Z,28.02
2019-03-08T02:52:48.561Z,28.92
2019-03-08T02:55:16.968Z,26.15
2019-03-08T02:57:45.319Z,27.10
2019-03-08T03:00:15.406Z,26.37
2019-03-08T03:02:44.690Z,23.07
2019-03-08T03:05:13.068Z,23.30
2019-03-08T03:07:41.432Z,22.27
2019-03-08T03:10:11.367Z,22.00
2019-03-08T03:12:39.938Z,26.15
2019-03-08T03:15:10.882Z,22.75
2019-03-08T03:17:39.270Z,21.10
2019-03-08T03:20:10.071Z,19.23
2019-03-08T03:22:38.436Z,21.60
2019-03-08T03:25:09.366Z,17.62
2019-03-08T03:27:37.726Z,17.48
2019-03-08T03:30:17.187Z,16.10
2019-03-08T03:32:45.548Z,21.57
2019-03-08T03:35:15.164Z,14.75
2019-03-08T03:37:43.582Z,14.85
2019-03-08T03:40:16.437Z,15.20
2019-03-08T03:42:44.805Z,19.27
2019-03-08T03:45:15.990Z,17.60
2019-03-08T03:47:44.361Z,16.35
2019-03-08T03:50:13.446Z,17.48
2019-03-08T03:52:42.575Z,15.35
2019-03-08T03:55:13.835Z,17.35
2019-03-08T03:57:42.211Z,20.50
2019-03-08T04:00:16.533Z,18.92
2019-03-08T04:02:44.888Z,22.50
2019-03-08T04:05:13.738Z,20.70
2019-03-08T04:07:42.209Z,21.90
2019-03-08T04:10:15.299Z,22.85
2019-03-08T04:12:43.693Z,21.27
2019-03-08T04:15:15.173Z,23.83
2019-03-08T04:17:43.527Z,25.20
2019-03-08T04:20:16.385Z,24.70
2019-03-08T04:22:44.757Z,24.65
2019-03-08T04:25:14.155Z,23.32
2019-03-08T04:27:42.556Z,27.42
2019-03-08T04:30:19.183Z,27.85
2019-03-08T04:32:47.554Z,31.05
2019-03-08T04:35:15.922Z,27.98
2019-03-08T04:37:44.280Z,32.05
2019-03-08T04:40:13.810Z,37.05
2019-03-08T04:42:42.164Z,34.65
2019-03-08T04:45:14.187Z,34.63
2019-03-08T04:47:42.834Z,36.83
2019-03-08T04:50:12.537Z,34.88
2019-03-08T04:52:40.901Z,36.13
2019-03-08T04:55:12.049Z,32.75
2019-03-08T04:57:40.403Z,33.78
2019-03-08T05:00:11.608Z,34.10
2019-03-08T05:02:40.407Z,33.33
2019-03-08T05:05:08.775Z,36.20
2019-03-08T05:07:37.167Z,35.15
2019-03-08T05:10:08.821Z,32.93
2019-03-08T05:12:37.679Z,27.13
2019-03-08T05:15:06.776Z,35.65
2019-03-08T05:17:35.173Z,31.37
2019-03-08T05:20:04.495Z,27.20
2019-03-08T05:22:32.867Z,29.72
2019-03-08T05:25:01.250Z,29.87
2019-03-08T05:27:30.114Z,29.15
2019-03-08T05:29:58.482Z,29.45
2019-03-08T05:32:26.876Z,27.58
2019-03-08T05:34:55.249Z,30.45
2019-03-08T05:37:23.604Z,26.02
2019-03-08T05:39:51.990Z,25.10
2019-03-08T05:42:20.760Z,27.65
2019-03-08T05:44:49.115Z,25.62
2019-03-08T05:47:17.520Z,26.07
2019-03-08T05:49:47.250Z,23.98
2019-03-08T05:52:15.612Z,25.37
2019-03-08T05:54:44.020Z,22.70
2019-03-08T05:57:12.358Z,24.85
2019-03-08T05:59:40.739Z,24.12
2019-03-08T06:02:09.158Z,20.92
2019-03-08T06:04:37.527Z,19.25
2019-03-08T06:07:05.884Z,21.23
2019-03-08T06:09:34.360Z,18.07
2019-03-08T06:12:02.721Z,20.82
2019-03-08T06:14:31.452Z,20.02
2019-03-08T06:16:59.918Z,22.40
2019-03-08T06:19:28.344Z,19.10
2019-03-08T06:21:56.711Z,19.45
2019-03-08T06:24:25.134Z,23.45
2019-03-08T06:26:53.470Z,22.20
2019-03-08T06:29:21.843Z,20.90
2019-03-08T06:31:50.244Z,19.30
2019-03-08T06:34:18.592Z,17.60
2019-03-08T06:36:46.956Z,18.10
2019-03-08T06:39:15.359Z,16.80
2019-03-08T06:41:43.729Z,14.83
2019-03-08T06:44:12.115Z,16.73
2019-03-08T06:46:40.877Z,16.75
2019-03-08T06:49:09.232Z,17.20
2019-03-08T06:51:37.713Z,16.10
2019-03-08T06:54:06.106Z,18.02
2019-03-08T06:56:34.474Z,15.13
2019-03-08T06:59:10.408Z,13.35
2019-03-08T07:01:39.427Z,17.45
2019-03-08T07:04:07.791Z,16.07
2019-03-08T07:06:36.200Z,15.98
2019-03-08T07:09:06.026Z,18.55
2019-03-08T07:11:34.381Z,13.55
2019-03-08T07:14:03.516Z,10.80
2019-03-08T07:16:31.849Z,13.53
2019-03-08T07:19:00.204Z,13.90
2019-03-08T07:21:33.117Z,14.75
2019-03-08T07:24:03.119Z,13.05
2019-03-08T07:26:51.090Z,12.43
2019-03-08T07:29:29.796Z,10.30
2019-03-08T07:31:59.846Z,10.98
2019-03-08T07:34:32.513Z,10.32
2019-03-08T07:37:19.276Z,10.03
2019-03-08T07:39:58.240Z,10.93
2019-03-08T07:42:28.282Z,10.23
2019-03-08T07:45:00.978Z,9.18
2019-03-08T07:47:37.171Z,8.50
2019-03-08T07:50:25.055Z,7.78
2019-03-08T07:53:11.349Z,12.37
2019-03-08T07:55:57.569Z,7.67
2019-03-08T07:58:27.592Z,7.67
2019-03-08T08:01:09.537Z,6.97
2019-03-08T08:03:55.036Z,7.60
2019-03-08T08:06:27.713Z,8.73
2019-03-08T08:09:14.198Z,7.33
2019-03-08T08:11:56.082Z,5.62
2019-03-08T08:14:28.768Z,8.10
2019-03-08T08:17:08.308Z,7.87
2019-03-08T08:19:49.972Z,5.22
2019-03-08T08:22:19.968Z,6.58
2019-03-08T08:24:55.962Z,5.90
2019-03-08T08:27:31.904Z,5.70
2019-03-08T08:30:01.952Z,3.85
2019-03-08T08:32:34.616Z,5.85
2019-03-08T08:35:13.969Z,9.05
2019-03-08T08:37:46.544Z,5.00
2019-03-08T08:40:16.540Z,5.08
2019-03-08T08:42:49.291Z,8.50
2019-03-08T08:45:19.302Z,11.00
2019-03-08T08:47:49.530Z,5.87
2019-03-08T08:50:19.571Z,6.20
2019-03-08T08:52:49.571Z,5.70
2019-03-08T08:55:22.253Z,4.95
2019-03-08T08:58:08.646Z,4.78
2019-03-08T09:00:38.642Z,6.00
2019-03-08T09:03:20.560Z,5.50
2019-03-08T09:05:50.554Z,4.65
2019-03-08T09:08:36.987Z,3.12
2019-03-08T09:11:16.109Z,8.35
2019-03-08T09:13:51.986Z,4.95
2019-03-08T09:16:28.337Z,5.53
2019-03-08T09:18:58.363Z,6.22
2019-03-08T09:21:44.475Z,3.67
2019-03-08T09:24:30.544Z,7.37
2019-03-08T09:27:06.552Z,4.53
2019-03-08T09:29:53.001Z,5.03
2019-03-08T09:32:23.311Z,6.87
2019-03-08T09:34:58.986Z,5.05
2019-03-08T09:37:34.916Z,4.72
2019-03-08T09:40:06.991Z,6.78
2019-03-08T09:42:54.986Z,5.50
2019-03-08T09:45:27.903Z,6.83
2019-03-08T09:48:03.823Z,7.10
2019-03-08T09:50:45.943Z,8.10
2019-03-08T09:53:21.715Z,5.35
2019-03-08T09:55:54.382Z,3.92
2019-03-08T09:58:40.650Z,3.20
2019-03-08T10:01:17.104Z,4.10
2019-03-08T10:03:53.296Z,3.42
2019-03-08T10:06:26.320Z,5.10
2019-03-08T10:09:15.058Z,6.33
2019-03-08T10:12:01.505Z,7.87
2019-03-08T10:14:40.322Z,5.28
2019-03-08T10:17:22.488Z,4.17
2019-03-08T10:19:52.496Z,4.60
2019-03-08T10:22:22.515Z,7.08
2019-03-08T10:24:53.827Z,5.62
2019-03-08T10:27:23.818Z,5.22
2019-03-08T10:29:53.804Z,6.25
2019-03-08T10:32:23.842Z,4.05
2019-03-08T10:35:10.096Z,4.62
2019-03-08T10:37:58.108Z,4.80
2019-03-08T10:40:30.717Z,4.20
2019-03-08T10:43:09.504Z,4.05
2019-03-08T10:45:39.521Z,4.60
2019-03-08T10:48:27.494Z,6.25
2019-03-08T10:51:00.304Z,4.20
2019-03-08T10:53:30.408Z,4.83
2019-03-08T10:56:15.732Z,4.15
2019-03-08T10:58:57.262Z,3.20
2019-03-08T11:01:27.300Z,5.85
2019-03-08T11:04:06.313Z,7.28
2019-03-08T11:06:41.936Z,6.00
2019-03-08T11:09:17.977Z,2.85
2019-03-08T11:11:56.956Z,5.00
2019-03-08T11:14:32.933Z,6.67
2019-03-08T11:17:03.078Z,3.45
2019-03-08T11:19:38.948Z,7.42
2019-03-08T11:22:12.415Z,2.52
2019-03-08T11:27:14.498Z,4.00
2019-03-08T11:30:02.460Z,3.33
2019-03-08T11:32:32.487Z,6.90
2019-03-08T11:35:08.420Z,5.33
2019-03-08T11:37:38.421Z,4.00
2019-03-08T11:40:27.758Z,6.75
2019-03-08T11:43:10.044Z,6.03
2019-03-08T11:45:42.844Z,3.92
2019-03-08T11:48:27.710Z,4.55
2019-03-08T11:51:14.122Z,4.53
2019-03-08T11:53:44.149Z,4.37
2019-03-08T11:56:18.378Z,4.15
2019-03-08T11:58:51.197Z,5.75
2019-03-08T12:01:30.168Z,8.25
2019-03-08T12:04:02.873Z,5.47
2019-03-08T12:06:50.813Z,4.45
2019-03-08T12:09:20.820Z,7.87
2019-03-08T12:12:07.132Z,3.08
2019-03-08T12:14:53.525Z,3.50
2019-03-08T12:17:38.792Z,7.97
2019-03-08T12:20:11.900Z,5.58
2019-03-08T12:22:58.090Z,5.85
2019-03-08T12:25:33.850Z,5.17
2019-03-08T12:28:12.950Z,3.85
2019-03-08T12:30:48.939Z,6.58
2019-03-08T12:33:24.440Z,6.90
2019-03-08T12:35:57.276Z,4.85
2019-03-08T12:38:36.469Z,6.42
2019-03-08T12:41:21.537Z,6.95
2019-03-08T12:43:51.554Z,11.12
2019-03-08T12:46:21.556Z,4.85
2019-03-08T12:49:03.870Z,7.12
2019-03-08T12:51:50.210Z,8.78
2019-03-08T12:54:26.056Z,6.92
2019-03-08T12:57:02.222Z,12.70
2019-03-08T12:59:41.104Z,3.55
2019-03-08T13:05:09.346Z,6.50
2019-03-08T13:10:15.079Z,4.95
2019-03-08T13:12:43.868Z,5.78
2019-03-08T13:15:14.572Z,8.35
2019-03-08T13:17:42.978Z,10.40
2019-03-08T13:20:14.273Z,6.53
2019-03-08T13:22:42.629Z,6.78
2019-03-08T13:25:11.504Z,7.12
2019-03-08T13:27:39.854Z,4.53
2019-03-08T13:30:11.511Z,4.00
2019-03-08T13:32:39.925Z,8.53
2019-03-08T13:35:11.344Z,7.35
2019-03-08T13:37:39.743Z,3.90
2019-03-08T13:40:11.219Z,5.85
2019-03-08T13:42:39.618Z,4.53
2019-03-08T13:45:11.263Z,5.10
2019-03-08T13:47:39.683Z,8.28
2019-03-08T13:50:11.378Z,8.35
2019-03-08T13:52:39.753Z,3.65
2019-03-08T13:55:13.813Z,5.80
2019-03-08T13:57:42.186Z,4.35
2019-03-08T14:00:18.716Z,5.47
2019-03-08T14:02:47.074Z,6.65
2019-03-08T14:05:15.464Z,6.78
2019-03-08T14:07:43.872Z,3.90
2019-03-08T14:10:14.975Z,4.92
2019-03-08T14:12:43.406Z,11.50
2019-03-08T14:15:14.269Z,5.45
2019-03-08T14:17:42.615Z,6.37
2019-03-08T14:20:14.367Z,9.88
2019-03-08T14:22:43.144Z,4.17
2019-03-08T14:25:11.580Z,4.95
2019-03-08T14:27:39.963Z,4.12
2019-03-08T14:30:17.539Z,3.75
2019-03-08T14:32:46.317Z,5.75
2019-03-08T14:35:14.663Z,5.67
2019-03-08T14:37:43.043Z,5.28
2019-03-08T14:40:34.123Z,6.75
2019-03-08T14:43:16.963Z,8.48
2019-03-08T14:45:47.924Z,5.50
2019-03-08T14:48:16.288Z,7.83
2019-03-08T14:50:44.744Z,6.97
2019-03-08T14:53:13.590Z,12.53
2019-03-08T14:55:41.985Z,11.53
2019-03-08T14:58:10.404Z,6.83
2019-03-08T15:00:38.808Z,10.25
2019-03-08T15:03:07.148Z,9.78
2019-03-08T15:05:35.566Z,8.15
2019-03-08T15:08:03.945Z,6.12
2019-03-08T15:10:39.098Z,5.85
2019-03-08T15:13:02.356Z,6.58
2019-03-08T15:15:30.736Z,8.75
2019-03-08T15:17:59.168Z,8.15
2019-03-08T15:20:27.586Z,6.20
2019-03-08T15:22:55.942Z,5.53
2019-03-08T15:25:24.314Z,4.45
2019-03-08T15:27:52.722Z,6.72
2019-03-08T15:30:21.075Z,5.65
2019-03-08T15:32:50.292Z,9.08
2019-03-08T15:35:18.921Z,5.90
2019-03-08T15:37:48.297Z,5.90
2019-03-08T15:40:24.113Z,10.38
2019-03-08T15:42:52.507Z,8.30
2019-03-08T15:45:20.901Z,8.40
2019-03-08T15:47:49.383Z,8.75
2019-03-08T15:50:19.898Z,5.50
2019-03-08T15:52:48.273Z,9.40
2019-03-08T15:55:16.704Z,12.73
2019-03-08T15:57:45.050Z,7.42
2019-03-08T16:00:24.748Z,9.50
2019-03-08T16:02:54.608Z,6.10
2019-03-08T16:05:23.879Z,6.28
2019-03-08T16:07:53.357Z,6.12
2019-03-08T16:10:22.884Z,7.85
2019-03-08T16:12:51.255Z,7.15
2019-03-08T16:15:19.671Z,13.38
2019-03-08T16:17:48.020Z,9.48
2019-03-08T16:20:20.726Z,6.67
2019-03-08T16:22:49.172Z,14.58
2019-03-08T16:25:17.826Z,17.12
2019-03-08T16:27:46.174Z,9.83
2019-03-08T16:30:31.555Z,11.73
2019-03-08T16:33:13.698Z,8.35
2019-03-08T16:35:43.971Z,12.28
2019-03-08T16:38:13.999Z,10.70
2019-03-08T16:40:44.038Z,16.50
2019-03-08T16:43:30.622Z,14.13
2019-03-08T16:46:12.318Z,11.65
2019-03-08T16:48:44.114Z,14.05
2019-03-08T16:51:14.218Z,9.40
2019-03-08T16:53:49.864Z,10.70
2019-03-08T16:56:22.561Z,11.00
2019-03-08T16:58:54.181Z,12.70
2019-03-08T17:01:27.130Z,17.57
2019-03-08T17:04:13.332Z,12.75
2019-03-08T17:06:43.373Z,11.88
2019-03-08T17:09:26.919Z,15.15
2019-03-08T17:12:05.664Z,17.60
2019-03-08T17:14:53.459Z,18.70
2019-03-08T17:17:26.356Z,14.05
2019-03-08T17:20:08.429Z,10.58
2019-03-08T17:22:41.088Z,11.33
2019-03-08T17:25:14.270Z,12.07
2019-03-08T17:27:44.296Z,10.63
2019-03-08T17:30:32.609Z,11.57
2019-03-08T17:33:02.647Z,11.95
2019-03-08T17:35:41.999Z,10.45
2019-03-08T17:38:12.016Z,7.15
2019-03-08T17:40:44.855Z,9.03
2019-03-08T17:43:20.848Z,12.37
2019-03-08T17:45:53.827Z,9.83
2019-03-08T17:48:23.919Z,13.20
2019-03-08T17:51:10.394Z,12.15
2019-03-08T17:53:56.326Z,12.82
2019-03-08T17:56:35.409Z,8.15
2019-03-08T17:59:08.814Z,11.53
2019-03-08T18:01:50.859Z,8.55
2019-03-08T18:04:26.398Z,11.10
2019-03-08T18:06:59.239Z,12.20
2019-03-08T18:09:43.972Z,9.28
2019-03-08T18:12:25.893Z,13.30
2019-03-08T18:14:56.409Z,8.13
2019-03-08T18:17:26.505Z,8.58
2019-03-08T18:20:05.052Z,8.83
2019-03-08T18:22:52.095Z,11.65
2019-03-08T18:25:28.227Z,7.85
2019-03-08T18:27:58.249Z,13.60
2019-03-08T18:30:40.229Z,15.00
2019-03-08T18:33:12.820Z,7.92
2019-03-08T18:35:45.913Z,8.35
2019-03-08T18:38:24.996Z,8.60
2019-03-08T18:41:09.791Z,9.73
2019-03-08T18:43:48.733Z,6.62
2019-03-08T18:46:18.905Z,7.50
2019-03-08T18:48:48.882Z,7.58
2019-03-08T18:51:24.734Z,8.65
2019-03-08T18:54:12.990Z,12.18
2019-03-08T18:56:59.193Z,6.65
2019-03-08T18:59:34.899Z,9.60
2019-03-08T19:02:13.983Z,7.25
2019-03-08T19:04:49.554Z,10.55
2019-03-08T19:07:19.607Z,11.95
2019-03-08T19:09:49.639Z,12.47
2019-03-08T19:12:25.277Z,10.08
2019-03-08T19:14:58.235Z,13.55
2019-03-08T19:17:44.628Z,9.25
2019-03-08T19:20:14.655Z,10.65
2019-03-08T19:22:47.549Z,11.57
2019-03-08T19:25:17.607Z,11.83
2019-03-08T19:27:54.368Z,13.00
2019-03-08T19:30:27.537Z,13.58
2019-03-08T19:33:06.433Z,15.10
2019-03-08T19:35:45.699Z,15.48
2019-03-08T19:38:30.818Z,17.32
2019-03-08T19:41:01.270Z,25.08
2019-03-08T19:43:34.320Z,16.60
2019-03-08T19:46:13.066Z,16.73
2019-03-08T19:48:46.081Z,18.05
2019-03-08T19:51:32.619Z,17.62
2019-03-08T19:54:02.796Z,17.12
2019-03-08T19:56:51.022Z,18.27
2019-03-08T19:59:36.248Z,17.40
2019-03-08T20:02:15.166Z,22.13
2019-03-08T20:05:01.616Z,13.50
2019-03-08T20:07:40.794Z,14.28
2019-03-08T20:10:27.499Z,19.37
2019-03-08T20:13:13.892Z,14.78
2019-03-08T20:15:55.899Z,15.40
2019-03-08T20:18:44.230Z,17.20
2019-03-08T20:21:14.283Z,13.65
2019-03-08T20:23:44.316Z,33.25
2019-03-08T20:26:14.332Z,19.17
2019-03-08T20:29:00.619Z,11.63
2019-03-08T20:31:36.456Z,16.50
2019-03-08T20:34:06.492Z,14.93
2019-03-08T20:36:38.936Z,15.48
2019-03-08T20:39:25.772Z,14.95
2019-03-08T20:41:55.833Z,15.32
2019-03-08T20:44:32.451Z,13.78
2019-03-08T20:47:02.508Z,17.67
2019-03-08T20:49:30.904Z,13.08
2019-03-08T20:51:59.456Z,9.18
2019-03-08T20:54:27.900Z,12.45
2019-03-08T20:56:56.351Z,11.97
2019-03-08T20:59:25.024Z,10.50
2019-03-08T21:01:53.854Z,8.60
2019-03-08T21:04:22.209Z,10.05
2019-03-08T21:06:51.595Z,11.38
2019-03-08T21:09:20.147Z,13.08
2019-03-08T21:11:48.555Z,10.95
2019-03-08T21:14:16.954Z,10.90
2019-03-08T21:16:45.391Z,12.00
2019-03-08T21:19:13.753Z,10.30
2019-03-08T21:21:42.159Z,14.55
2019-03-08T21:27:03.635Z,11.85
2019-03-08T21:29:32.041Z,8.80
2019-03-08T21:32:00.517Z,12.40
2019-03-08T21:34:28.950Z,12.53
2019-03-08T21:36:57.311Z,11.38
2019-03-08T21:39:25.729Z,9.80
2019-03-08T21:41:54.202Z,14.85
2019-03-08T21:44:22.598Z,11.88
2019-03-08T21:46:51.180Z,10.68
2019-03-08T21:49:19.579Z,9.43
2019-03-08T21:51:47.942Z,8.63
2019-03-08T21:54:16.325Z,11.88
2019-03-08T21:56:44.703Z,10.43
2019-03-08T21:59:13.100Z,6.92
2019-03-08T22:01:41.455Z,6.42
2019-03-08T22:04:11.505Z,7.22
2019-03-08T22:06:39.976Z,7.25
2019-03-08T22:09:19.041Z,7.45
2019-03-08T22:11:47.613Z,7.95
2019-03-08T22:14:16.002Z,9.70
2019-03-08T22:16:44.388Z,4.28
2019-03-08T22:19:12.763Z,4.90
2019-03-08T22:21:41.136Z,5.75
2019-03-08T22:24:13.337Z,6.30
2019-03-08T22:26:39.576Z,5.30
2019-03-08T22:29:07.950Z,5.60
2019-03-08T22:31:36.314Z,5.92
2019-03-08T22:34:04.719Z,3.72
2019-03-08T22:36:33.104Z,6.08
2019-03-08T22:39:01.997Z,7.70
2019-03-08T22:41:30.379Z,4.90
2019-03-08T22:43:58.739Z,4.58
2019-03-08T22:46:27.626Z,5.70
2019-03-08T22:48:55.985Z,6.55
2019-03-08T22:51:24.332Z,3.90
2019-03-08T22:53:52.735Z,4.87
2019-03-08T22:56:21.124Z,6.37
2019-03-08T22:58:49.501Z,5.72
2019-03-08T23:01:20.315Z,4.40
2019-03-08T23:03:48.681Z,4.75
2019-03-08T23:06:17.018Z,4.95
2019-03-08T23:08:45.440Z,4.83
2019-03-08T23:11:13.818Z,6.20
2019-03-08T23:13:42.163Z,6.05
2019-03-08T23:16:10.564Z,7.37
2019-03-08T23:18:39.240Z,5.87
2019-03-08T23:21:07.588Z,2.98
2019-03-08T23:23:36.008Z,7.37
2019-03-08T23:26:04.357Z,4.85
2019-03-08T23:28:37.292Z,7.33
2019-03-08T23:31:23.511Z,4.72
2019-03-08T23:33:51.891Z,9.05
2019-03-08T23:36:20.280Z,12.85
2019-03-08T23:38:48.693Z,7.17
2019-03-08T23:41:17.039Z,6.87
2019-03-08T23:43:45.415Z,9.38
2019-03-08T23:46:14.029Z,9.38
2019-03-08T23:48:42.404Z,10.03
2019-03-08T23:51:10.783Z,6.25
2019-03-08T23:53:39.195Z,8.95
2019-03-08T23:56:07.939Z,9.78
2019-03-08T23:58:36.330Z,9.03
